East Glacier Park, MT (59434)

6:01 PM MDT on August 18, 2017 (GMT -0600)
Glacier Acres | | Change Station

Elev 4741 ft 48.42 °N, 113.20 °W | Updated 26 seconds ago

Clear
Clear
78.3 °F
Feels Like 78 °F
N
4.7
Wind Variable Wind from SSE

Today
High -- | Low -- °F
--% Chance of Precip.
Yesterday
High -- | Low -- °F
Precip. -- in
Pressure 29.79 in
Visibility 10.0 miles
Clouds Clear
Heat Index 78 °F
Dew Point 35 °F
Humidity 21%
Rainfall 0.00 in
Snow Depth Not available.
6:31 AM 8:40 PM
Waning Crescent, 10% visible
METAR KCTB 182356Z AUTO 24021G26KT 10SM CLR 28/00 A2988 RMK AO2 PK WND 25031/2308 SLP088 T02780000 10311 20272 56012
Pressure 29.79 in
Visibility 10.0 miles
Clouds Clear
Heat Index 78 °F
Dew Point 35 °F
Humidity 21%
Rainfall 0.00 in
Snow Depth Not available.
6:31 AM 8:40 PM
Waning Crescent, 10% visible
METAR KCTB 182356Z AUTO 24021G26KT 10SM CLR 28/00 A2988 RMK AO2 PK WND 25031/2308 SLP088 T02780000 10311 20272 56012

Get Severe Weather Alerts

Thanks for signing up!

Be on the lookout for a verification email in your inbox.

You'll start receiving the daily forecast at 6 AM.

×

10-Day Weather Forecast

Almanac

Astronomy

Aug. 18, 2017 Rise Set
Actual Time
Civil Twilight
Nautical Twilight
Astronomical Twilight
Moon
Length of Visible Light
Length of Day
Tomorrow will be .
, % of the Moon is Illuminated

Today's Extremes

State Highs State Lows

Community

WunderPhotos

Category 6

Welcome to Category 6. This is the collective home for Weather Underground's featured writeups by Dr. Jeff Masters (right), Bob Henson (left), Chris Burt, and other regular contributors.

Nearby

Air Quality

  Air Quality AQ Index Pollutant
Not available.

Snow Depth

Station Depth Elevation

Earthquake Activity

City Distance Mag. Time & Date
Minimum magnitude displayed is 2.5.

Coastal Water Temperatures

Place Temperature

Stations

Nearby Weather Stations

Station Location Temp. Windchill Dew Point Humidity Wind Precip. Elev Updated Type
                   

Watches & Warnings

There are currently no watches in effect.